Time;durP1;ratioP1;P1;durP2;ratioP2;P2;SDS_P1;SDS_P2;PMS_P1;PMS_P2;Temp;Humidity;BMP_temperature;BMP_pressure;BME280_temperature;BME280_humidity;BME280_pressure;Samples;Min_cycle;Max_cycle;Signal;HPM_P1;HPM_P2
2023/07/27 00:00:55;;;;;;;1.00;0.50;;;;;;;;;;5002293;28;20273;-70
2023/07/27 00:03:21;;;;;;;1.05;0.50;;;;;;;;;;5003748;28;20177;-71
2023/07/27 00:05:47;;;;;;;0.95;0.55;;;16.60;99.90;;;;;;5008645;28;20179;-71
2023/07/27 00:08:13;;;;;;;0.55;0.40;;;;;;;;;;5005806;28;20186;-70
2023/07/27 00:10:39;;;;;;;0.55;0.50;;;;;;;;;;4999052;28;20321;-69
2023/07/27 00:13:05;;;;;;;0.47;0.47;;;16.50;99.90;;;;;;5007878;28;20174;-71
2023/07/27 00:15:31;;;;;;;0.82;0.40;;;;;;;;;;5004902;28;20183;-72
2023/07/27 00:17:57;;;;;;;0.95;0.50;;;;;;;;;;5001213;28;20264;-73
2023/07/27 00:20:23;;;;;;;1.05;0.50;;;;;;;;;;5004849;28;20187;-72
2023/07/27 00:22:49;;;;;;;0.60;0.30;;;;;;;;;;5004170;28;20209;-72
2023/07/27 00:25:15;;;;;;;0.75;0.50;;;;;;;;;;5004839;28;20182;-71
2023/07/27 00:27:41;;;;;;;1.48;0.40;;;15.40;99.90;;;;;;5006005;28;20186;-70
2023/07/27 00:30:07;;;;;;;1.63;0.40;;;16.50;99.90;;;;;;5008286;28;20210;-71
2023/07/27 00:32:33;;;;;;;0.90;0.45;;;;;;;;;;5002616;28;20262;-70
2023/07/27 00:34:59;;;;;;;0.95;0.45;;;;;;;;;;5008790;28;20273;-70
2023/07/27 00:37:25;;;;;;;1.35;0.50;;;16.70;99.90;;;;;;5005173;28;20183;-70
2023/07/27 00:39:51;;;;;;;1.80;0.57;;;;;;;;;;5006244;28;20532;-71
2023/07/27 00:42:17;;;;;;;1.10;0.57;;;;;;;;;;5004567;28;20183;-71
2023/07/27 00:44:43;;;;;;;1.42;0.52;;;;;;;;;;4998279;28;20190;-71
2023/07/27 00:47:09;;;;;;;1.75;0.60;;;16.70;99.90;;;;;;5004299;28;20179;-71
2023/07/27 00:49:34;;;;;;;2.15;0.73;;;16.50;99.90;;;;;;5008801;28;20739;-71
2023/07/27 00:52:07;;;;;;;2.03;0.65;;;16.80;99.90;;;;;;5008238;28;20680;-71
2023/07/27 00:54:34;;;;;;;4.50;0.65;;;16.70;99.90;;;;;;5009769;28;20732;-71
2023/07/27 00:57:00;;;;;;;0.47;0.32;;;16.70;99.90;;;;;;5010985;28;20253;-71
2023/07/27 00:59:25;;;;;;;0.75;0.35;;;16.70;99.90;;;;;;5010250;28;20712;-72
2023/07/27 01:01:51;;;;;;;2.53;0.57;;;16.70;99.90;;;;;;5008355;28;20257;-71
2023/07/27 01:04:17;;;;;;;2.97;0.50;;;16.80;99.90;;;;;;5009309;28;20183;-71
2023/07/27 01:06:42;;;;;;;1.77;0.47;;;16.70;99.90;;;;;;5012032;28;20217;-72
2023/07/27 01:09:08;;;;;;;1.50;0.73;;;16.70;99.90;;;;;;5008149;28;20715;-72
2023/07/27 01:11:37;;;;;;;0.95;0.60;;;16.70;99.90;;;;;;5012770;28;20720;-72
2023/07/27 01:14:21;;;;;;;1.13;0.57;;;16.80;99.90;;;;;;5009889;28;20183;-71
2023/07/27 01:17:03;;;;;;;1.30;0.65;;;16.80;99.90;;;;;;5011578;28;20182;-72
2023/07/27 01:20:12;;;;;;;1.73;0.63;;;16.80;99.90;;;;;;5009641;28;20312;-71
2023/07/27 01:23:03;;;;;;;1.80;0.68;;;16.80;99.90;;;;;;5003588;28;20661;-72
2023/07/27 01:26:12;;;;;;;0.70;0.50;;;16.80;99.90;;;;;;5007589;28;20187;-71
2023/07/27 01:29:03;;;;;;;2.67;0.60;;;16.80;99.90;;;;;;5003272;28;20233;-71
2023/07/27 01:31:41;;;;;;;1.70;0.40;;;16.80;99.90;;;;;;5008780;28;20178;-71
2023/07/27 01:34:31;;;;;;;0.98;0.60;;;16.80;99.90;;;;;;5007741;28;20665;-71
2023/07/27 01:37:01;;;;;;;0.85;0.35;;;16.80;99.90;;;;;;5011022;28;20178;-70
2023/07/27 01:39:29;;;;;;;0.68;0.40;;;16.80;99.90;;;;;;5006773;28;20269;-70
2023/07/27 01:41:55;;;;;;;0.45;0.30;;;16.80;99.90;;;;;;5006055;28;20179;-70
2023/07/27 01:44:24;;;;;;;1.20;0.35;;;16.80;99.90;;;;;;5008033;28;20225;-70
2023/07/27 01:46:52;;;;;;;2.35;0.50;;;16.80;99.90;;;;;;5008305;28;20178;-70
2023/07/27 01:49:20;;;;;;;1.23;0.38;;;16.80;99.90;;;;;;5005126;28;20226;-68
2023/07/27 01:51:46;;;;;;;1.33;0.40;;;16.80;99.90;;;;;;5012513;28;20265;-70
2023/07/27 01:54:13;;;;;;;1.75;0.20;;;16.80;99.90;;;;;;5005919;28;20214;-70
2023/07/27 01:56:41;;;;;;;1.13;0.30;;;16.80;99.90;;;;;;5004087;28;20672;-71
2023/07/27 01:59:07;;;;;;;0.40;0.30;;;16.80;99.90;;;;;;5006477;28;20336;-70
2023/07/27 02:01:34;;;;;;;0.43;0.20;;;16.90;99.90;;;;;;5007390;28;20269;-70
2023/07/27 02:04:00;;;;;;;0.63;0.20;;;16.80;99.90;;;;;;5008636;28;20190;-71
2023/07/27 02:06:26;;;;;;;1.75;0.20;;;16.90;99.90;;;;;;5009807;28;20174;-71
2023/07/27 02:08:51;;;;;;;0.28;0.13;;;16.80;99.90;;;;;;5006515;28;20254;-70
2023/07/27 02:11:20;;;;;;;2.65;0.20;;;16.80;99.90;;;;;;5008284;28;20210;-70
2023/07/27 02:14:06;;;;;;;2.13;0.32;;;16.90;99.90;;;;;;5002856;28;20626;-71
2023/07/27 02:16:45;;;;;;;0.52;0.30;;;16.80;99.90;;;;;;5006861;28;20186;-70
2023/07/27 02:19:15;;;;;;;0.60;0.40;;;16.80;99.90;;;;;;5007271;28;20182;-71
2023/07/27 02:21:42;;;;;;;0.50;0.30;;;16.80;99.90;;;;;;5000403;28;20254;-69
2023/07/27 02:24:08;;;;;;;0.40;0.25;;;16.80;99.90;;;;;;5007816;28;20779;-70
2023/07/27 02:26:34;;;;;;;0.47;0.20;;;16.80;99.90;;;;;;5010274;28;20258;-69
2023/07/27 02:29:00;;;;;;;1.95;0.20;;;16.80;99.90;;;;;;5005225;28;20309;-70
2023/07/27 02:31:26;;;;;;;0.20;0.20;;;16.80;99.90;;;;;;5008135;28;20328;-70
2023/07/27 02:33:51;;;;;;;1.42;0.30;;;16.90;99.90;;;;;;5010026;28;20599;-70
2023/07/27 02:36:17;;;;;;;0.55;0.30;;;16.90;99.90;;;;;;5005573;28;20183;-69
2023/07/27 02:38:43;;;;;;;0.10;0.10;;;16.90;99.90;;;;;;5007547;28;20577;-70
2023/07/27 02:41:11;;;;;;;0.65;0.10;;;16.90;99.90;;;;;;5002173;28;20182;-69
2023/07/27 02:43:38;;;;;;;0.90;0.28;;;16.90;99.90;;;;;;5007996;28;20186;-71
2023/07/27 02:46:04;;;;;;;0.85;0.10;;;16.90;99.90;;;;;;5006060;28;20222;-71
2023/07/27 02:48:30;;;;;;;1.15;0.20;;;16.90;99.90;;;;;;5010801;28;20181;-71
2023/07/27 02:50:55;;;;;;;4.90;0.30;;;16.80;99.90;;;;;;5001982;28;20215;-70
2023/07/27 02:53:21;;;;;;;0.10;0.10;;;16.10;99.90;;;;;;5001793;28;20186;-71
2023/07/27 02:56:01;;;;;;;0.45;0.10;;;16.70;99.90;;;;;;5006086;28;20203;-70
2023/07/27 02:58:26;;;;;;;1.02;0.20;;;16.90;99.90;;;;;;5009370;28;20178;-71
2023/07/27 03:01:02;;;;;;;0.43;0.10;;;16.70;99.90;;;;;;5007362;28;20185;-71
2023/07/27 03:03:28;;;;;;;0.50;0.20;;;16.90;99.90;;;;;;5012278;28;20178;-70
2023/07/27 03:06:01;;;;;;;0.10;0.10;;;16.90;99.90;;;;;;5009389;28;20237;-71
2023/07/27 03:08:27;;;;;;;2.40;0.20;;;16.90;99.90;;;;;;5010322;28;20178;-72
2023/07/27 03:10:53;;;;;;;1.05;0.20;;;16.90;99.90;;;;;;5005815;28;20250;-71
2023/07/27 03:13:20;;;;;;;0.10;0.10;;;16.90;99.90;;;;;;5009902;28;20649;-70
2023/07/27 03:15:45;;;;;;;3.10;0.13;;;16.90;99.90;;;;;;5005696;28;20193;-72
2023/07/27 03:18:11;;;;;;;1.52;0.20;;;17.00;99.90;;;;;;5007444;28;20178;-72
2023/07/27 03:20:40;;;;;;;0.00;0.00;;;17.00;99.90;;;;;;5009258;28;20190;-72
2023/07/27 03:23:07;;;;;;;0.43;0.10;;;17.00;99.90;;;;;;5003601;28;20298;-72
2023/07/27 03:25:33;;;;;;;0.15;0.10;;;17.00;99.90;;;;;;5008726;28;20189;-72
2023/07/27 03:28:00;;;;;;;0.60;0.10;;;17.00;99.90;;;;;;5006052;28;20174;-72
2023/07/27 03:30:26;;;;;;;0.20;0.10;;;17.00;99.90;;;;;;5006770;28;20218;-74
2023/07/27 03:32:51;;;;;;;1.95;0.10;;;16.90;99.90;;;;;;5005544;28;20270;-71
2023/07/27 03:35:17;;;;;;;0.15;0.00;;;17.00;99.90;;;;;;5009964;28;20189;-71
2023/07/27 03:37:42;;;;;;;0.10;0.10;;;17.10;99.90;;;;;;5005289;28;20676;-72
2023/07/27 03:40:08;;;;;;;0.35;0.10;;;16.80;99.90;;;;;;5008186;28;20178;-70
2023/07/27 03:42:34;;;;;;;1.10;0.10;;;17.00;99.90;;;;;;5030714;28;20270;-70
2023/07/27 03:45:00;;;;;;;0.10;0.00;;;16.70;99.90;;;;;;5007693;28;20214;-71
2023/07/27 03:47:25;;;;;;;0.20;0.10;;;17.20;99.90;;;;;;5008832;28;20175;-71
2023/07/27 03:49:51;;;;;;;0.28;0.13;;;16.90;99.90;;;;;;4998502;28;20563;-71
2023/07/27 03:52:16;;;;;;;1.45;0.00;;;17.10;99.90;;;;;;5006611;28;20187;-70
2023/07/27 03:54:42;;;;;;;0.10;0.10;;;;;;;;;;5004798;28;20683;-69
2023/07/27 03:57:08;;;;;;;0.47;0.13;;;17.10;99.90;;;;;;5006547;28;20178;-71
2023/07/27 03:59:34;;;;;;;1.85;0.22;;;;;;;;;;5005509;28;20183;-71
2023/07/27 04:01:59;;;;;;;0.10;0.10;;;16.90;99.90;;;;;;5009245;28;20175;-71
2023/07/27 04:04:25;;;;;;;0.10;0.00;;;;;;;;;;5004935;28;20609;-70
2023/07/27 04:06:51;;;;;;;0.10;0.10;;;16.90;99.90;;;;;;5006246;28;20182;-70
2023/07/27 04:09:17;;;;;;;0.63;0.00;;;;;;;;;;5007861;28;20268;-71
2023/07/27 04:11:43;;;;;;;0.75;0.13;;;17.00;99.90;;;;;;5005360;28;20353;-71
2023/07/27 04:14:09;;;;;;;0.30;0.10;;;;;;;;;;5008364;28;20280;-71
2023/07/27 04:16:36;;;;;;;0.00;0.00;;;;;;;;;;5006754;28;20705;-71
2023/07/27 04:19:02;;;;;;;0.45;0.00;;;;;;;;;;5015505;28;20179;-71
2023/07/27 04:21:28;;;;;;;0.03;0.03;;;;;;;;;;5005697;28;20183;-72
2023/07/27 04:23:54;;;;;;;0.10;0.10;;;17.20;99.90;;;;;;5007754;28;20175;-72
2023/07/27 04:26:20;;;;;;;0.00;0.00;;;;;;;;;;5008781;28;20641;-70
2023/07/27 04:28:45;;;;;;;0.30;0.00;;;17.00;99.90;;;;;;5010215;28;20178;-70
2023/07/27 04:31:11;;;;;;;0.93;0.15;;;;;;;;;;5011718;28;20191;-71
2023/07/27 04:33:37;;;;;;;1.08;0.00;;;16.60;99.90;;;;;;5010172;28;20286;-70
2023/07/27 04:36:03;;;;;;;0.75;0.13;;;;;;;;;;5011330;28;20723;-71
2023/07/27 04:38:29;;;;;;;0.10;0.00;;;17.20;99.90;;;;;;5009342;28;20224;-72
2023/07/27 04:40:55;;;;;;;0.00;0.00;;;17.20;99.90;;;;;;5008697;28;20232;-71
2023/07/27 04:43:21;;;;;;;0.57;0.00;;;;;;;;;;5010003;28;20543;-72
2023/07/27 04:45:47;;;;;;;0.00;0.00;;;17.30;99.90;;;;;;5012745;28;20186;-72
2023/07/27 04:48:13;;;;;;;0.65;0.00;;;;;;;;;;5009041;28;20201;-71
2023/07/27 04:50:38;;;;;;;1.08;0.10;;;17.40;99.90;;;;;;5009844;28;20217;-71
2023/07/27 04:53:04;;;;;;;0.43;0.00;;;;;;;;;;5008787;28;20179;-71
2023/07/27 04:55:30;;;;;;;0.00;0.00;;;;;;;;;;5012750;28;20683;-71
2023/07/27 04:57:56;;;;;;;0.00;0.00;;;;;;;;;;5007437;28;20410;-70
2023/07/27 05:00:22;;;;;;;0.43;0.00;;;;;;;;;;5005297;28;20220;-70
2023/07/27 05:02:48;;;;;;;0.00;0.00;;;17.60;99.90;;;;;;5008289;28;20198;-70
2023/07/27 05:05:13;;;;;;;0.60;0.10;;;17.50;99.90;;;;;;5009292;28;20681;-70
2023/07/27 05:07:39;;;;;;;0.03;0.00;;;17.60;99.90;;;;;;5007130;28;20257;-71
2023/07/27 05:10:05;;;;;;;1.05;0.05;;;17.60;99.90;;;;;;5007472;28;20230;-70
2023/07/27 05:12:32;;;;;;;0.47;0.10;;;17.60;99.90;;;;;;5005640;28;20696;-70
2023/07/27 05:14:58;;;;;;;0.35;0.00;;;17.50;99.90;;;;;;5008207;28;20191;-70
2023/07/27 05:17:24;;;;;;;0.00;0.00;;;17.60;99.90;;;;;;5012554;28;20637;-70
2023/07/27 05:19:50;;;;;;;0.00;0.00;;;17.80;99.90;;;;;;5007842;28;20189;-69
2023/07/27 05:22:15;;;;;;;0.10;0.00;;;17.60;99.90;;;;;;5009204;28;20653;-71
2023/07/27 05:24:41;;;;;;;0.35;0.05;;;17.70;99.90;;;;;;5010614;28;20646;-71
2023/07/27 05:27:06;;;;;;;0.77;0.05;;;17.70;99.90;;;;;;5009254;28;20229;-72
2023/07/27 05:29:32;;;;;;;1.45;0.00;;;17.70;99.90;;;;;;5010793;28;20210;-71
2023/07/27 05:31:58;;;;;;;0.43;0.00;;;17.70;99.90;;;;;;5017539;28;20178;-71
2023/07/27 05:34:23;;;;;;;1.98;0.00;;;17.70;99.90;;;;;;5026368;28;20186;-72
2023/07/27 05:36:49;;;;;;;0.40;0.00;;;17.60;99.90;;;;;;5003988;28;20188;-71
2023/07/27 05:39:14;;;;;;;0.10;0.00;;;17.70;99.90;;;;;;5001653;28;20190;-71
2023/07/27 05:41:40;;;;;;;0.30;0.10;;;17.60;99.90;;;;;;5008955;28;20197;-71
2023/07/27 05:44:06;;;;;;;1.55;0.08;;;18.00;99.90;;;;;;4997935;28;20182;-71
2023/07/27 05:46:31;;;;;;;1.05;0.00;;;17.80;99.90;;;;;;5005165;28;20195;-71
2023/07/27 05:48:57;;;;;;;0.60;0.00;;;17.70;99.90;;;;;;5007656;28;20232;-70
2023/07/27 05:51:23;;;;;;;0.30;0.00;;;17.80;99.90;;;;;;5024570;28;20209;-71
2023/07/27 05:53:48;;;;;;;2.10;0.13;;;17.80;99.90;;;;;;5006751;28;20190;-70
2023/07/27 05:56:14;;;;;;;1.02;0.08;;;17.80;99.90;;;;;;5025903;28;20189;-70
2023/07/27 05:58:40;;;;;;;0.00;0.00;;;;;;;;;;5008095;28;20178;-70
2023/07/27 06:01:06;;;;;;;0.20;0.03;;;;;;;;;;5008973;28;20262;-70
2023/07/27 06:03:31;;;;;;;0.22;0.05;;;18.00;99.90;;;;;;5007563;28;20676;-70
2023/07/27 06:05:57;;;;;;;0.10;0.05;;;17.90;99.90;;;;;;5008774;28;20233;-70
2023/07/27 06:08:23;;;;;;;1.08;0.10;;;17.90;99.90;;;;;;5014108;28;20172;-69
2023/07/27 06:10:49;;;;;;;0.55;0.00;;;18.00;99.90;;;;;;5014720;28;20257;-69
2023/07/27 06:13:15;;;;;;;0.32;0.13;;;18.00;99.90;;;;;;5003612;28;20179;-69
2023/07/27 06:15:47;;;;;;;0.85;0.10;;;18.10;99.90;;;;;;5002427;28;20181;-70
2023/07/27 06:18:13;;;;;;;0.65;0.20;;;18.10;99.90;;;;;;5006777;28;20183;-70
2023/07/27 06:20:39;;;;;;;0.40;0.10;;;18.10;99.90;;;;;;5008282;28;20664;-71
2023/07/27 06:23:04;;;;;;;0.47;0.10;;;18.00;99.90;;;;;;5004514;28;20205;-71
2023/07/27 06:25:30;;;;;;;1.02;0.20;;;18.00;99.90;;;;;;5002914;28;20174;-71
2023/07/27 06:27:55;;;;;;;1.45;0.20;;;18.00;99.90;;;;;;5009602;28;20672;-70
2023/07/27 06:30:21;;;;;;;0.90;0.20;;;18.10;99.90;;;;;;5007646;28;20247;-71
2023/07/27 06:32:47;;;;;;;0.95;0.20;;;18.10;99.90;;;;;;5004391;28;20186;-71
2023/07/27 06:35:13;;;;;;;0.47;0.10;;;18.10;99.90;;;;;;5006925;28;20218;-71
2023/07/27 06:37:38;;;;;;;1.30;0.10;;;18.20;99.90;;;;;;5007709;28;20193;-72
2023/07/27 06:40:05;;;;;;;1.83;0.20;;;18.10;99.90;;;;;;5002027;28;20178;-70
2023/07/27 06:42:31;;;;;;;2.00;0.10;;;18.10;99.90;;;;;;5007893;28;20206;-70
2023/07/27 06:44:56;;;;;;;2.28;0.10;;;18.10;99.90;;;;;;5006376;28;20210;-69
2023/07/27 06:47:22;;;;;;;1.35;0.20;;;18.10;99.90;;;;;;5000981;28;20186;-70
2023/07/27 06:49:47;;;;;;;1.20;0.38;;;17.90;99.90;;;;;;5005685;28;20808;-70
2023/07/27 06:52:13;;;;;;;1.50;0.30;;;18.10;99.90;;;;;;5007471;28;20653;-70
2023/07/27 06:54:39;;;;;;;0.70;0.20;;;18.20;99.90;;;;;;5009465;28;20269;-72
2023/07/27 06:57:09;;;;;;;2.15;0.40;;;18.00;99.90;;;;;;5008391;28;20183;-72
2023/07/27 06:59:38;;;;;;;1.15;0.40;;;18.20;99.90;;;;;;5004530;28;20185;-72
2023/07/27 07:02:04;;;;;;;1.13;0.10;;;18.30;99.90;;;;;;5002080;28;20190;-71
2023/07/27 07:04:31;;;;;;;1.20;0.32;;;18.30;99.90;;;;;;5010034;28;20183;-72
2023/07/27 07:06:57;;;;;;;1.05;0.25;;;18.30;99.90;;;;;;5005465;28;20182;-71
2023/07/27 07:09:23;;;;;;;2.30;0.30;;;18.30;99.90;;;;;;5007190;28;20225;-70
2023/07/27 07:11:49;;;;;;;1.30;0.28;;;18.30;99.90;;;;;;5004377;28;20179;-69
2023/07/27 07:14:14;;;;;;;1.90;0.30;;;18.30;99.90;;;;;;5001476;28;20171;-70
2023/07/27 07:16:40;;;;;;;3.40;0.43;;;18.30;99.90;;;;;;5004794;28;20186;-69
2023/07/27 07:19:06;;;;;;;1.65;0.35;;;18.30;99.90;;;;;;5000193;28;20205;-72
2023/07/27 07:21:31;;;;;;;0.52;0.20;;;18.30;99.90;;;;;;5005826;28;20240;-72
2023/07/27 07:23:57;;;;;;;1.52;0.45;;;18.20;99.90;;;;;;5006480;28;20191;-72
2023/07/27 07:26:24;;;;;;;2.13;0.30;;;18.20;99.90;;;;;;5004402;28;20178;-71
2023/07/27 07:28:49;;;;;;;1.63;0.60;;;18.20;99.90;;;;;;5006040;28;20653;-70
2023/07/27 07:31:15;;;;;;;1.52;0.55;;;18.20;99.90;;;;;;5009277;28;20182;-71
2023/07/27 07:33:40;;;;;;;1.70;0.50;;;18.30;99.90;;;;;;5005567;28;20179;-71
2023/07/27 07:36:07;;;;;;;1.45;0.70;;;18.30;99.90;;;;;;5009747;28;20727;-71
2023/07/27 07:38:32;;;;;;;1.55;0.52;;;18.30;99.90;;;;;;5006037;28;20175;-71
2023/07/27 07:40:58;;;;;;;1.70;0.80;;;18.30;99.90;;;;;;5003760;28;20531;-71
2023/07/27 07:43:24;;;;;;;2.08;0.65;;;18.30;99.90;;;;;;5004867;28;20266;-71
2023/07/27 07:45:49;;;;;;;0.57;0.50;;;18.30;99.90;;;;;;5007319;28;20189;-70
2023/07/27 07:48:15;;;;;;;0.95;0.50;;;18.30;99.90;;;;;;5004119;28;20189;-71
2023/07/27 07:50:41;;;;;;;1.55;0.47;;;18.30;99.90;;;;;;5006160;28;20317;-71
2023/07/27 07:53:06;;;;;;;1.30;0.40;;;18.30;99.90;;;;;;5005371;28;20560;-71
2023/07/27 07:55:38;;;;;;;1.48;0.45;;;18.30;99.90;;;;;;5005677;28;20194;-72
2023/07/27 07:58:03;;;;;;;2.30;0.38;;;18.40;99.90;;;;;;5008906;28;20178;-71
2023/07/27 08:00:29;;;;;;;1.45;0.40;;;18.50;99.90;;;;;;5006777;28;20645;-72
2023/07/27 08:02:55;;;;;;;4.38;0.52;;;18.60;99.90;;;;;;5004057;28;20233;-72
2023/07/27 08:05:20;;;;;;;3.58;0.57;;;18.60;99.90;;;;;;5001993;28;20193;-72
2023/07/27 08:07:46;;;;;;;1.33;0.40;;;18.70;99.90;;;;;;5005493;28;20182;-71
2023/07/27 08:10:12;;;;;;;4.95;0.60;;;18.70;99.90;;;;;;5005849;28;20312;-72
2023/07/27 08:12:38;;;;;;;5.55;0.60;;;18.70;99.90;;;;;;5006167;28;20665;-72
2023/07/27 08:15:05;;;;;;;4.72;0.70;;;18.70;99.90;;;;;;5002459;28;20190;-72
2023/07/27 08:17:31;;;;;;;4.20;0.77;;;18.70;99.90;;;;;;5005639;28;20186;-74
2023/07/27 08:19:56;;;;;;;4.28;0.82;;;18.70;99.90;;;;;;5003949;28;20174;-72
2023/07/27 08:22:23;;;;;;;7.40;1.10;;;18.70;99.90;;;;;;5006348;28;20213;-72
2023/07/27 08:24:49;;;;;;;6.97;0.95;;;18.70;99.90;;;;;;5005472;28;20209;-72
2023/07/27 08:27:15;;;;;;;5.63;0.90;;;18.90;99.90;;;;;;5008546;28;20252;-73
2023/07/27 08:29:41;;;;;;;4.43;0.98;;;19.00;99.90;;;;;;5005389;28;20214;-72
2023/07/27 08:32:07;;;;;;;10.45;1.58;;;19.20;99.90;;;;;;5004782;28;20171;-70
2023/07/27 08:34:33;;;;;;;4.30;0.95;;;19.40;99.90;;;;;;5004511;28;20187;-71
2023/07/27 08:36:59;;;;;;;5.95;1.20;;;19.30;99.90;;;;;;5012414;28;20260;-71
2023/07/27 08:39:24;;;;;;;9.38;1.30;;;19.30;99.90;;;;;;5007120;28;20233;-71
2023/07/27 08:41:50;;;;;;;2.83;1.13;;;19.40;99.90;;;;;;5006746;28;20637;-72
2023/07/27 08:44:16;;;;;;;6.10;1.35;;;19.20;99.90;;;;;;4995504;28;20178;-72
2023/07/27 08:46:43;;;;;;;6.50;1.00;;;19.50;99.90;;;;;;5001007;28;20276;-68
2023/07/27 08:49:12;;;;;;;5.70;1.17;;;19.20;99.90;;;;;;5004339;28;20210;-70
2023/07/27 08:51:41;;;;;;;4.47;0.95;;;19.50;99.90;;;;;;5007538;28;20269;-71
2023/07/27 08:54:06;;;;;;;6.07;0.98;;;19.30;99.90;;;;;;5005906;28;20186;-71
2023/07/27 08:56:32;;;;;;;4.80;0.75;;;19.30;99.90;;;;;;5004280;28;20667;-71
2023/07/27 08:58:58;;;;;;;4.85;1.00;;;19.30;99.90;;;;;;5004524;28;20190;-70
2023/07/27 09:01:23;;;;;;;3.40;1.00;;;19.30;99.90;;;;;;5005250;28;20650;-70
2023/07/27 09:03:49;;;;;;;5.35;1.00;;;19.50;99.90;;;;;;5004078;28;20634;-70
2023/07/27 09:06:15;;;;;;;5.15;1.23;;;19.60;99.90;;;;;;5004958;28;20266;-70
2023/07/27 09:08:42;;;;;;;4.88;0.95;;;19.80;99.90;;;;;;5004737;28;20179;-71
2023/07/27 09:11:09;;;;;;;4.68;0.88;;;19.70;99.90;;;;;;5011165;28;20275;-70
2023/07/27 09:13:35;;;;;;;6.20;0.77;;;19.90;99.90;;;;;;5000346;28;20201;-71
2023/07/27 09:16:02;;;;;;;5.63;1.15;;;20.00;99.90;;;;;;5007140;28;20186;-70
2023/07/27 09:18:33;;;;;;;5.47;0.88;;;19.70;99.90;;;;;;5008525;28;20172;-70
2023/07/27 09:21:08;;;;;;;5.38;1.00;;;19.60;99.90;;;;;;5011422;28;20718;-71
2023/07/27 09:23:35;;;;;;;3.72;0.80;;;19.70;99.90;;;;;;5008754;28;20325;-71
2023/07/27 09:26:00;;;;;;;4.28;0.98;;;19.90;99.90;;;;;;5003749;28;20179;-70
2023/07/27 09:28:27;;;;;;;6.88;1.00;;;20.10;99.90;;;;;;4998464;28;20179;-71
2023/07/27 09:31:02;;;;;;;4.78;0.88;;;20.20;99.90;;;;;;5024122;28;20230;-72
2023/07/27 09:33:28;;;;;;;4.65;0.82;;;20.30;99.90;;;;;;5010766;28;20177;-70
2023/07/27 09:35:55;;;;;;;4.60;0.95;;;20.30;99.90;;;;;;5002089;28;20533;-71
2023/07/27 09:38:25;;;;;;;12.80;1.30;;;20.40;99.90;;;;;;5005440;28;20171;-71
2023/07/27 09:40:51;;;;;;;8.50;1.05;;;20.50;99.90;;;;;;5001742;28;20174;-71
2023/07/27 09:43:17;;;;;;;7.47;1.17;;;20.40;99.90;;;;;;5006624;28;20226;-71
2023/07/27 09:45:43;;;;;;;7.13;1.02;;;20.30;99.90;;;;;;5009449;28;20744;-72
2023/07/27 09:48:09;;;;;;;4.03;1.02;;;20.50;99.90;;;;;;5008280;28;20174;-72
2023/07/27 09:50:35;;;;;;;8.48;1.33;;;20.50;99.90;;;;;;5005184;28;20273;-72
2023/07/27 09:53:02;;;;;;;6.45;1.10;;;20.50;99.90;;;;;;5000902;28;20178;-73
2023/07/27 09:55:30;;;;;;;5.65;1.13;;;20.40;99.90;;;;;;5006661;28;20594;-72
2023/07/27 09:57:58;;;;;;;4.90;1.10;;;20.50;99.90;;;;;;5007686;28;20171;-73
2023/07/27 10:00:25;;;;;;;4.90;1.00;;;20.30;99.90;;;;;;5005811;28;20231;-72
2023/07/27 10:02:51;;;;;;;7.22;1.33;;;22.40;99.90;;;;;;5009132;28;20266;-73
2023/07/27 10:05:16;;;;;;;6.85;1.48;;;20.30;99.90;;;;;;5007348;28;20266;-73
2023/07/27 10:07:43;;;;;;;6.03;1.20;;;20.50;99.90;;;;;;5002268;28;20178;-72
2023/07/27 10:10:26;;;;;;;9.75;1.92;;;20.60;99.90;;;;;;5006266;28;20238;-72
2023/07/27 10:12:55;;;;;;;9.68;1.75;;;20.60;99.90;;;;;;5005035;28;20225;-71
2023/07/27 10:15:24;;;;;;;4.63;1.25;;;20.80;99.90;;;;;;5004793;28;20210;-71
2023/07/27 10:17:54;;;;;;;6.30;1.40;;;21.10;99.90;;;;;;5006503;28;20641;-71
2023/07/27 10:20:23;;;;;;;2.80;0.90;;;21.00;99.90;;;;;;5009082;28;20721;-72
2023/07/27 10:23:20;;;;;;;6.50;1.38;;;20.90;99.90;;;;;;5008430;28;20233;-71
2023/07/27 10:25:58;;;;;;;6.00;1.10;;;21.30;99.90;;;;;;5001247;28;20191;-72
2023/07/27 10:28:47;;;;;;;4.80;1.02;;;21.40;99.90;;;;;;5010580;28;20252;-72
2023/07/27 10:31:24;;;;;;;5.75;1.00;;;21.50;99.90;;;;;;5004530;28;20210;-72
2023/07/27 10:34:01;;;;;;;4.05;1.10;;;21.50;99.90;;;;;;5024654;28;20743;-72
2023/07/27 10:36:47;;;;;;;8.00;1.00;;;21.60;99.90;;;;;;5007449;28;20336;-72
2023/07/27 10:39:18;;;;;;;7.38;1.13;;;21.20;99.90;;;;;;5006529;28;20208;-72
2023/07/27 10:42:00;;;;;;;6.10;1.00;;;21.20;99.90;;;;;;5006553;28;20185;-72
2023/07/27 10:44:27;;;;;;;5.90;1.27;;;21.20;99.90;;;;;;5006926;28;20211;-72
2023/07/27 10:46:57;;;;;;;2.85;0.80;;;21.40;99.90;;;;;;5006261;28;20183;-73
2023/07/27 10:49:23;;;;;;;3.15;0.95;;;21.40;99.90;;;;;;5009878;28;20264;-72
2023/07/27 10:51:49;;;;;;;2.25;0.63;;;21.50;99.90;;;;;;5006550;28;20186;-72
2023/07/27 10:54:14;;;;;;;3.30;0.80;;;21.20;99.90;;;;;;5007133;28;20642;-71
2023/07/27 10:56:41;;;;;;;3.03;0.77;;;21.30;99.90;;;;;;5010599;28;20261;-72
2023/07/27 10:59:11;;;;;;;3.92;0.95;;;21.70;99.90;;;;;;4997725;28;20597;-72
2023/07/27 11:01:37;;;;;;;5.85;1.27;;;21.20;99.90;;;;;;5007326;28;20261;-72
2023/07/27 11:04:04;;;;;;;4.45;0.70;;;21.40;99.90;;;;;;5004374;28;20274;-72
2023/07/27 11:06:30;;;;;;;4.22;0.63;;;21.30;99.90;;;;;;5010244;28;20183;-71
2023/07/27 11:08:56;;;;;;;2.85;0.70;;;21.10;99.90;;;;;;5005629;28;20189;-72
2023/07/27 11:11:29;;;;;;;1.58;0.60;;;21.10;99.90;;;;;;5002595;28;20269;-71
2023/07/27 11:14:04;;;;;;;2.17;0.80;;;20.90;99.90;;;;;;5005049;28;20166;-72
2023/07/27 11:16:30;;;;;;;7.55;1.20;;;20.90;99.90;;;;;;4992886;28;20401;-72
2023/07/27 11:18:55;;;;;;;3.92;0.75;;;21.00;99.90;;;;;;5004640;28;20283;-72
2023/07/27 11:21:21;;;;;;;2.85;0.88;;;21.40;99.90;;;;;;4991901;28;20182;-72
2023/07/27 11:23:47;;;;;;;1.10;0.70;;;21.70;99.90;;;;;;4998635;28;20648;-72
2023/07/27 11:26:13;;;;;;;4.00;1.20;;;21.90;99.90;;;;;;5010324;28;20178;-72
2023/07/27 11:28:40;;;;;;;5.55;1.13;;;22.20;99.90;;;;;;4992844;28;20172;-72
2023/07/27 11:31:07;;;;;;;1.85;0.80;;;22.30;99.90;;;;;;5011564;28;20241;-74
2023/07/27 11:33:34;;;;;;;2.25;0.73;;;22.00;99.90;;;;;;5010969;28;20710;-72
2023/07/27 11:36:00;;;;;;;3.40;1.05;;;22.10;99.90;;;;;;5010725;28;20635;-73
2023/07/27 11:38:29;;;;;;;4.18;1.23;;;21.50;99.90;;;;;;5011337;28;20178;-73
2023/07/27 11:40:57;;;;;;;2.85;1.10;;;21.40;99.90;;;;;;5011400;28;20316;-72
2023/07/27 11:43:24;;;;;;;2.25;0.95;;;21.40;99.90;;;;;;4999247;28;20175;-72
2023/07/27 11:45:57;;;;;;;2.47;1.10;;;22.20;99.90;;;;;;4991809;28;20203;-72
2023/07/27 11:48:27;;;;;;;2.95;1.10;;;21.00;99.90;;;;;;4998838;28;20170;-72
2023/07/27 11:50:54;;;;;;;5.00;1.08;;;21.10;99.90;;;;;;5010935;28;20214;-72
2023/07/27 11:53:24;;;;;;;3.13;1.13;;;23.00;99.90;;;;;;5010905;28;20657;-72
2023/07/27 11:55:50;;;;;;;3.97;1.00;;;22.10;99.90;;;;;;5009796;28;20413;-72
2023/07/27 11:58:15;;;;;;;2.35;0.90;;;21.90;99.90;;;;;;5005787;28;20170;-72
2023/07/27 12:00:50;;;;;;;3.17;1.00;;;20.00;99.90;;;;;;5010839;28;20178;-72
2023/07/27 12:03:18;;;;;;;4.90;0.90;;;22.40;99.90;;;;;;5010813;28;20170;-73
2023/07/27 12:05:43;;;;;;;1.88;0.80;;;22.60;99.90;;;;;;5010759;28;20175;-73
2023/07/27 12:08:09;;;;;;;2.10;0.65;;;22.80;99.90;;;;;;5009278;28;20174;-73
2023/07/27 12:10:35;;;;;;;2.70;1.02;;;22.80;99.90;;;;;;4998445;28;20755;-74
2023/07/27 12:13:05;;;;;;;4.20;0.73;;;22.80;99.90;;;;;;4992646;28;20178;-73
2023/07/27 12:15:35;;;;;;;3.42;1.48;;;22.50;99.90;;;;;;5006457;28;20189;-73
2023/07/27 12:18:05;;;;;;;2.78;0.70;;;22.30;99.90;;;;;;5011070;28;20178;-73
2023/07/27 12:20:34;;;;;;;2.03;0.70;;;22.50;99.90;;;;;;4996565;28;20278;-73
2023/07/27 12:23:00;;;;;;;1.13;0.75;;;21.90;99.90;;;;;;4999310;28;20181;-73
2023/07/27 12:25:27;;;;;;;2.67;1.10;;;22.50;99.90;;;;;;5007329;28;20182;-73
2023/07/27 12:27:53;;;;;;;2.38;1.00;;;22.50;99.90;;;;;;5001849;28;20217;-73
2023/07/27 12:30:22;;;;;;;1.17;0.80;;;22.70;99.90;;;;;;5011027;28;20269;-74
2023/07/27 12:32:49;;;;;;;1.73;0.60;;;22.60;99.90;;;;;;5010898;28;20183;-73
2023/07/27 12:35:15;;;;;;;1.10;0.70;;;22.60;99.90;;;;;;4992234;28;20181;-72
2023/07/27 12:37:43;;;;;;;2.50;0.73;;;23.70;99.90;;;;;;5005849;28;20202;-73
2023/07/27 12:40:09;;;;;;;3.28;0.98;;;24.80;99.90;;;;;;5008489;28;20225;-73
2023/07/27 12:42:35;;;;;;;2.35;0.90;;;25.00;99.90;;;;;;4996000;28;20273;-74
2023/07/27 12:45:00;;;;;;;0.98;0.70;;;25.20;99.90;;;;;;5011907;28;20167;-73
2023/07/27 12:47:26;;;;;;;2.35;0.57;;;24.80;99.90;;;;;;5013601;28;20178;-73
2023/07/27 12:49:52;;;;;;;2.03;0.50;;;24.10;99.90;;;;;;5009722;28;20807;-75
2023/07/27 12:52:18;;;;;;;1.60;0.50;;;23.80;99.90;;;;;;5010407;28;20257;-75
2023/07/27 12:54:44;;;;;;;2.88;0.80;;;23.70;99.90;;;;;;5013332;28;20183;-75
2023/07/27 12:57:10;;;;;;;3.20;0.80;;;23.90;99.90;;;;;;5012745;28;20579;-76
2023/07/27 12:59:35;;;;;;;0.80;0.60;;;24.10;99.90;;;;;;4997142;28;20183;-78